Time;durP1;ratioP1;P1;durP2;ratioP2;P2;SDS_P1;SDS_P2;PMS_P1;PMS_P2;Temp;Humidity;BMP_temperature;BMP_pressure;BME280_temperature;BME280_humidity;BME280_pressure;Samples;Min_cycle;Max_cycle;Signal;HPM_P1;HPM_P2
2022/09/20 00:01:27;;;;;;;3.47;0.95;;;16.70;78.60;;;;;;5041892;28;20385;-83
2022/09/20 00:03:58;;;;;;;3.00;1.10;;;16.70;78.40;;;;;;5048935;28;20415;-85
2022/09/20 00:06:28;;;;;;;3.20;1.00;;;16.70;77.70;;;;;;5031694;28;20378;-82
2022/09/20 00:08:58;;;;;;;2.67;1.00;;;16.80;80.20;;;;;;5045368;28;20383;-83
2022/09/20 00:11:28;;;;;;;3.13;0.90;;;17.10;79.60;;;;;;5017804;28;20382;-84
2022/09/20 00:13:57;;;;;;;3.03;1.20;;;17.20;79.80;;;;;;5031394;28;20377;-84
2022/09/20 00:16:28;;;;;;;3.25;1.08;;;17.50;78.80;;;;;;5031500;28;20378;-82
2022/09/20 00:18:57;;;;;;;2.40;1.10;;;17.90;77.80;;;;;;5031393;28;20387;-85
2022/09/20 00:21:27;;;;;;;3.30;1.10;;;18.40;73.90;;;;;;5030966;28;20442;-82
2022/09/20 00:23:56;;;;;;;2.35;1.15;;;18.40;71.60;;;;;;5031236;28;20777;-85
2022/09/20 00:26:23;;;;;;;2.58;1.00;;;18.30;73.20;;;;;;5031653;28;20404;-84
2022/09/20 00:28:51;;;;;;;6.20;1.20;;;18.20;73.40;;;;;;5031228;28;20428;-83
2022/09/20 00:31:18;;;;;;;4.40;1.20;;;18.40;73.70;;;;;;5012937;28;20428;-84
2022/09/20 00:36:31;;;;;;;2.47;1.07;;;18.60;73.30;;;;;;5031319;28;20785;-85
2022/09/20 00:39:00;;;;;;;2.92;1.02;;;18.60;72.30;;;;;;5030898;28;20412;-85
2022/09/20 00:41:29;;;;;;;2.97;1.00;;;18.80;74.00;;;;;;5031012;28;20385;-84
2022/09/20 00:43:56;;;;;;;4.45;0.80;;;19.00;71.90;;;;;;5030635;28;20491;-85
2022/09/20 00:46:40;;;;;;;2.37;0.97;;;18.90;72.50;;;;;;5030731;28;20377;-84
2022/09/20 00:49:20;;;;;;;3.00;1.00;;;19.00;73.20;;;;;;5030995;28;20443;-85
2022/09/20 00:51:58;;;;;;;4.30;1.05;;;19.30;72.60;;;;;;5030796;28;20373;-85
2022/09/20 00:54:28;;;;;;;2.40;0.90;;;19.70;72.90;;;;;;5031001;28;20377;-84
2022/09/20 00:56:55;;;;;;;3.33;0.85;;;20.10;74.00;;;;;;5017315;28;20389;-84
2022/09/20 00:59:49;;;;;;;3.13;1.20;;;20.20;73.10;;;;;;5030494;28;20373;-86
2022/09/20 01:02:29;;;;;;;3.45;0.90;;;20.50;70.40;;;;;;5028922;28;20385;-85
2022/09/20 01:04:59;;;;;;;3.33;1.02;;;20.30;71.90;;;;;;5030666;28;20443;-85
2022/09/20 01:07:26;;;;;;;4.85;1.20;;;20.40;72.00;;;;;;5032179;28;20373;-86
2022/09/20 01:09:54;;;;;;;3.42;0.90;;;20.40;71.90;;;;;;5030567;28;20413;-84
2022/09/20 01:12:26;;;;;;;4.72;1.20;;;20.40;72.70;;;;;;5030671;28;20372;-85
2022/09/20 01:14:54;;;;;;;3.40;1.00;;;20.70;72.70;;;;;;5017620;28;20464;-84
2022/09/20 01:17:26;;;;;;;5.13;1.20;;;20.70;71.80;;;;;;5030697;28;20412;-84
2022/09/20 01:20:18;;;;;;;4.03;1.02;;;20.60;72.10;;;;;;5030450;28;20469;-83
2022/09/20 01:22:54;;;;;;;5.00;0.97;;;20.60;73.50;;;;;;5049624;28;20407;-83
2022/09/20 01:25:39;;;;;;;4.10;0.87;;;20.80;72.30;;;;;;5037650;28;20884;-84
2022/09/20 01:28:06;;;;;;;4.63;1.10;;;21.40;72.60;;;;;;5016927;28;20413;-84
2022/09/20 01:30:55;;;;;;;3.47;1.02;;;21.70;70.50;;;;;;5037795;28;20492;-85
2022/09/20 01:33:30;;;;;;;2.83;1.10;;;22.10;67.70;;;;;;5035302;28;20383;-83
2022/09/20 01:36:02;;;;;;;7.00;1.10;;;22.40;67.50;;;;;;5019168;28;20379;-85
2022/09/20 01:38:54;;;;;;;3.65;1.08;;;22.80;66.80;;;;;;5037431;28;21156;-85
2022/09/20 01:41:53;;;;;;;3.78;0.93;;;23.40;65.60;;;;;;5038049;28;20378;-84
2022/09/20 01:44:31;;;;;;;2.13;0.90;;;24.40;61.50;;;;;;5037218;28;20473;-85
2022/09/20 01:47:19;;;;;;;3.38;1.10;;;23.90;60.60;;;;;;5038895;28;20963;-86
2022/09/20 01:50:23;;;;;;;4.22;1.10;;;23.90;61.10;;;;;;5040781;28;20385;-84
2022/09/20 01:53:26;;;;;;;3.05;1.08;;;24.10;60.70;;;;;;5040932;28;20380;-85
2022/09/20 01:56:03;;;;;;;4.00;1.02;;;24.80;58.70;;;;;;5028542;28;20369;-86
2022/09/20 01:58:51;;;;;;;4.35;1.20;;;25.20;58.50;;;;;;5041275;28;20361;-85
2022/09/20 02:01:29;;;;;;;4.93;1.00;;;25.80;55.90;;;;;;5020366;28;20485;-85
2022/09/20 02:04:26;;;;;;;3.80;1.10;;;25.90;56.30;;;;;;5032642;28;20410;-83
2022/09/20 02:07:02;;;;;;;3.38;1.08;;;25.20;55.50;;;;;;5047313;28;20367;-85
2022/09/20 02:10:08;;;;;;;3.30;1.00;;;25.40;55.40;;;;;;5045852;28;20448;-84
2022/09/20 02:13:08;;;;;;;4.13;1.27;;;25.40;55.80;;;;;;5039057;28;20915;-87
2022/09/20 02:16:03;;;;;;;5.10;1.02;;;25.50;54.40;;;;;;5038136;28;20373;-84
2022/09/20 02:18:45;;;;;;;4.78;1.10;;;26.00;54.40;;;;;;5027502;28;20388;-86
2022/09/20 02:21:50;;;;;;;6.17;1.23;;;26.40;53.60;;;;;;5036725;28;21004;-85
2022/09/20 02:24:49;;;;;;;3.35;1.08;;;25.90;53.30;;;;;;4933389;29;20421;-84
2022/09/20 02:27:41;;;;;;;2.83;1.20;;;25.60;53.90;;;;;;4884176;29;20387;-84
2022/09/20 02:30:11;;;;;;;3.83;1.20;;;25.10;53.30;;;;;;4883395;29;20423;-84
2022/09/20 02:32:56;;;;;;;3.50;1.10;;;23.40;55.40;;;;;;4883430;29;20407;-85
2022/09/20 02:35:44;;;;;;;3.47;1.05;;;23.80;57.60;;;;;;4882597;29;20395;-85
2022/09/20 02:38:26;;;;;;;4.55;1.02;;;24.50;57.80;;;;;;4883135;29;20391;-84
2022/09/20 02:41:12;;;;;;;3.28;1.00;;;25.60;55.40;;;;;;4893436;29;20399;-83
2022/09/20 02:44:19;;;;;;;3.80;0.93;;;26.40;52.30;;;;;;4883924;29;20418;-85
2022/09/20 02:46:49;;;;;;;2.55;1.10;;;27.10;51.90;;;;;;4880591;29;20418;-83
2022/09/20 02:49:34;;;;;;;3.20;1.10;;;27.40;51.70;;;;;;4881906;29;20387;-84
2022/09/20 02:52:16;;;;;;;2.50;0.98;;;27.10;51.30;;;;;;4883987;29;20394;-84
2022/09/20 02:55:20;;;;;;;1.92;0.90;;;27.50;51.60;;;;;;4885220;29;20391;-83
2022/09/20 02:57:54;;;;;;;3.95;1.13;;;27.60;51.10;;;;;;4885270;29;20383;-86
2022/09/20 03:00:24;;;;;;;2.17;0.80;;;28.50;48.90;;;;;;4953405;28;20885;-84
2022/09/20 03:03:28;;;;;;;1.95;0.90;;;28.40;48.70;;;;;;4989476;28;20397;-85
2022/09/20 03:06:39;;;;;;;3.63;0.85;;;27.90;49.50;;;;;;5035729;28;20378;-85
2022/09/20 03:09:37;;;;;;;2.55;0.90;;;28.40;49.70;;;;;;4958265;28;20383;-84
2022/09/20 03:12:24;;;;;;;2.75;0.75;;;28.80;48.00;;;;;;4976533;28;20422;-85
2022/09/20 03:15:03;;;;;;;8.52;1.67;;;28.60;46.40;;;;;;4973236;28;20980;-85
2022/09/20 03:17:48;;;;;;;4.00;0.85;;;28.40;46.80;;;;;;4971870;28;20387;-85
2022/09/20 03:20:20;;;;;;;5.77;1.10;;;27.70;48.00;;;;;;4972740;28;20383;-85
2022/09/20 03:23:06;;;;;;;3.28;0.93;;;27.70;47.60;;;;;;4971525;28;20386;-86
2022/09/20 03:25:51;;;;;;;2.50;0.70;;;28.50;46.50;;;;;;4972236;28;20387;-85
2022/09/20 03:28:23;;;;;;;3.13;0.93;;;28.30;45.90;;;;;;4966870;28;20384;-85
2022/09/20 03:31:08;;;;;;;3.03;0.90;;;27.60;46.60;;;;;;4963881;28;20410;-85
2022/09/20 03:34:01;;;;;;;2.00;0.80;;;26.90;48.00;;;;;;4971473;28;20515;-85
2022/09/20 03:37:00;;;;;;;2.28;0.80;;;27.20;47.80;;;;;;4955025;28;20858;-85
2022/09/20 03:40:02;;;;;;;2.10;1.00;;;26.50;48.00;;;;;;4983957;28;20820;-84
2022/09/20 03:42:30;;;;;;;4.38;0.95;;;26.80;49.40;;;;;;4982557;28;20899;-85
2022/09/20 03:45:26;;;;;;;1.85;0.75;;;27.40;48.50;;;;;;5029427;28;20401;-85
2022/09/20 03:48:55;;;;;;;1.85;0.80;;;27.80;48.50;;;;;;5033697;28;20382;-85
2022/09/20 03:51:41;;;;;;;3.78;0.90;;;28.60;46.70;;;;;;4944602;28;20742;-86
2022/09/20 03:54:26;;;;;;;3.92;0.80;;;28.00;46.90;;;;;;4951425;28;20377;-85
2022/09/20 03:57:10;;;;;;;3.13;0.75;;;28.80;47.30;;;;;;4952025;28;20439;-86
2022/09/20 03:59:40;;;;;;;3.80;0.93;;;29.90;45.80;;;;;;4953070;28;20411;-86
2022/09/20 04:02:08;;;;;;;8.63;1.27;;;30.70;44.90;;;;;;4952053;28;20746;-86
2022/09/20 04:04:52;;;;;;;2.08;0.80;;;31.00;43.10;;;;;;4957006;28;20450;-86
2022/09/20 04:07:42;;;;;;;3.30;0.87;;;29.90;42.70;;;;;;4957364;28;20870;-86
2022/09/20 04:10:39;;;;;;;3.15;0.90;;;29.10;45.20;;;;;;4961695;28;20380;-86
2022/09/20 04:13:30;;;;;;;2.72;1.00;;;29.10;44.10;;;;;;4948713;28;20398;-86
2022/09/20 04:16:30;;;;;;;2.60;1.00;;;29.10;44.90;;;;;;4947367;28;20496;-84
2022/09/20 04:19:14;;;;;;;3.20;0.90;;;28.80;44.70;;;;;;4951893;28;20487;-85
2022/09/20 04:21:56;;;;;;;4.18;0.93;;;28.70;45.10;;;;;;4951530;28;20800;-86
2022/09/20 04:24:37;;;;;;;1.52;0.90;;;29.00;44.70;;;;;;4938079;28;20417;-86
2022/09/20 04:27:37;;;;;;;4.03;0.90;;;29.40;45.60;;;;;;4996420;28;20409;-85
2022/09/20 04:30:31;;;;;;;2.10;0.80;;;29.20;43.70;;;;;;5032336;28;20765;-86
2022/09/20 04:33:21;;;;;;;4.35;0.90;;;28.50;44.00;;;;;;5032932;28;20382;-84
2022/09/20 04:36:27;;;;;;;2.88;0.93;;;28.70;45.00;;;;;;5032650;28;20365;-87
2022/09/20 04:39:15;;;;;;;2.90;1.00;;;28.90;45.60;;;;;;5022627;28;20373;-86
2022/09/20 04:42:10;;;;;;;3.67;1.07;;;28.90;46.70;;;;;;5055583;28;20367;-85
2022/09/20 04:45:20;;;;;;;3.17;0.90;;;29.80;44.30;;;;;;5061572;28;20476;-86
2022/09/20 04:48:25;;;;;;;3.37;0.93;;;30.00;44.70;;;;;;5044186;28;20368;-86
2022/09/20 04:51:23;;;;;;;2.70;0.95;;;29.80;44.70;;;;;;4959328;28;20907;-84
2022/09/20 04:54:16;;;;;;;2.72;0.95;;;29.80;44.40;;;;;;4969643;28;20384;-85
2022/09/20 04:56:43;;;;;;;3.05;1.00;;;29.70;44.30;;;;;;4973167;28;20373;-86
2022/09/20 04:59:24;;;;;;;2.08;0.90;;;29.70;44.60;;;;;;4974138;28;20425;-85
2022/09/20 05:02:32;;;;;;;3.38;0.93;;;29.70;45.30;;;;;;4973753;28;20372;-85
2022/09/20 05:05:25;;;;;;;2.55;0.88;;;30.70;43.70;;;;;;4973142;28;20407;-85
2022/09/20 05:08:10;;;;;;;2.92;1.00;;;31.10;42.40;;;;;;4964701;28;20384;-86
2022/09/20 05:10:50;;;;;;;2.00;1.00;;;31.40;42.40;;;;;;4956133;28;20397;-85
2022/09/20 05:13:20;;;;;;;2.42;0.80;;;31.10;42.70;;;;;;4943107;28;20740;-84
2022/09/20 05:15:56;;;;;;;4.07;1.00;;;30.40;43.00;;;;;;4954987;28;20439;-84
2022/09/20 05:18:52;;;;;;;3.83;1.30;;;30.50;43.60;;;;;;4955312;28;20419;-85
2022/09/20 05:21:49;;;;;;;4.05;1.20;;;30.90;43.10;;;;;;4959842;28;20806;-85
2022/09/20 05:24:23;;;;;;;5.57;1.20;;;30.90;43.00;;;;;;4949491;28;20987;-86
2022/09/20 05:27:14;;;;;;;4.07;1.10;;;30.50;43.60;;;;;;4974412;28;20461;-85
2022/09/20 05:30:05;;;;;;;4.75;1.20;;;30.00;44.00;;;;;;5028996;28;20446;-84
2022/09/20 05:32:40;;;;;;;2.95;1.20;;;29.70;44.50;;;;;;5029559;28;20409;-94
2022/09/20 05:35:17;;;;;;;3.28;1.30;;;29.10;44.10;;;;;;5020954;28;20447;-90
2022/09/20 05:38:05;;;;;;;2.93;1.00;;;27.90;45.80;;;;;;5034604;28;20496;-84
2022/09/20 05:40:50;;;;;;;3.95;1.02;;;28.00;46.80;;;;;;5021515;28;20480;-85
2022/09/20 05:43:30;;;;;;;3.90;1.00;;;28.20;45.80;;;;;;5046296;28;20387;-84
2022/09/20 05:46:30;;;;;;;3.47;1.10;;;29.00;45.00;;;;;;5036291;28;20387;-86
2022/09/20 05:49:37;;;;;;;3.83;1.13;;;29.10;45.10;;;;;;5021815;28;20452;-85
2022/09/20 05:52:25;;;;;;;3.67;1.00;;;28.70;45.90;;;;;;5034257;28;20768;-85
2022/09/20 05:55:30;;;;;;;2.63;1.10;;;28.60;46.70;;;;;;5033791;28;20385;-84
2022/09/20 05:58:24;;;;;;;4.03;1.08;;;28.70;46.80;;;;;;4964371;28;20478;-86
2022/09/20 06:01:12;;;;;;;5.13;1.10;;;29.20;48.20;;;;;;4972014;28;20402;-85
2022/09/20 06:04:07;;;;;;;4.43;1.25;;;28.20;48.80;;;;;;4970798;28;20465;-83
2022/09/20 06:06:57;;;;;;;3.15;1.08;;;26.80;51.10;;;;;;4961063;28;20548;-85
2022/09/20 06:09:51;;;;;;;5.50;1.20;;;25.30;54.00;;;;;;4966167;28;20999;-84
2022/09/20 06:12:41;;;;;;;4.03;1.20;;;24.40;56.70;;;;;;4972905;28;20468;-83
2022/09/20 06:15:20;;;;;;;3.35;1.20;;;23.20;59.00;;;;;;4972108;28;20870;-83
2022/09/20 06:18:25;;;;;;;2.72;1.15;;;23.10;61.10;;;;;;4971701;28;20379;-84
2022/09/20 06:20:55;;;;;;;5.73;1.30;;;24.30;59.10;;;;;;4918147;29;20396;-82
2022/09/20 06:23:23;;;;;;;3.67;1.20;;;25.20;57.50;;;;;;4914307;29;20407;-81
2022/09/20 06:25:56;;;;;;;3.42;1.25;;;25.50;56.30;;;;;;4915409;29;20439;-82
2022/09/20 06:28:38;;;;;;;4.20;1.10;;;26.00;55.20;;;;;;4915972;29;20403;-83
2022/09/20 06:31:09;;;;;;;4.65;1.27;;;26.40;54.60;;;;;;4907050;29;20500;-84
2022/09/20 06:33:49;;;;;;;3.17;1.10;;;26.70;54.40;;;;;;4890199;28;20512;-82
2022/09/20 06:42:05;;;;;;;4.20;1.27;;;26.50;54.60;;;;;;4967870;28;20380;-84
2022/09/20 06:44:33;;;;;;;3.72;1.10;;;26.00;55.40;;;;;;4965364;28;20421;-84
2022/09/20 06:47:00;;;;;;;6.72;1.40;;;25.60;56.60;;;;;;4971259;28;20491;-84
2022/09/20 06:49:28;;;;;;;4.32;1.10;;;25.50;57.40;;;;;;4971775;28;20393;-83
2022/09/20 06:51:56;;;;;;;4.95;1.48;;;24.80;59.00;;;;;;4971208;28;20393;-84
2022/09/20 06:54:25;;;;;;;6.50;1.33;;;25.00;59.20;;;;;;4971969;28;20382;-85
2022/09/20 06:56:53;;;;;;;5.05;1.40;;;25.00;59.00;;;;;;4981097;28;20456;-88
2022/09/20 06:59:20;;;;;;;5.03;1.33;;;24.40;60.30;;;;;;5022032;28;20393;-83
2022/09/20 07:01:48;;;;;;;5.70;1.57;;;24.10;61.50;;;;;;5022531;28;20437;-86
2022/09/20 07:04:15;;;;;;;5.40;1.42;;;23.90;62.60;;;;;;5020326;28;20413;-88
2022/09/20 07:06:42;;;;;;;7.27;1.87;;;23.60;63.30;;;;;;5032793;28;20869;-84
2022/09/20 07:09:11;;;;;;;3.85;1.20;;;23.40;64.10;;;;;;5032075;28;20833;-86
2022/09/20 07:11:38;;;;;;;4.18;1.33;;;23.00;65.30;;;;;;5035378;28;20374;-84
2022/09/20 07:14:06;;;;;;;6.30;1.57;;;22.70;66.30;;;;;;5036763;28;20385;-89
2022/09/20 07:16:35;;;;;;;5.13;1.50;;;22.30;67.70;;;;;;5035408;28;20368;-88
2022/09/20 07:19:04;;;;;;;5.30;1.52;;;21.90;68.90;;;;;;5033128;28;20386;-86
2022/09/20 07:21:31;;;;;;;6.45;1.55;;;21.50;70.40;;;;;;5032555;28;20370;-84
2022/09/20 07:23:58;;;;;;;6.55;1.80;;;21.10;71.40;;;;;;5031518;28;20493;-85
2022/09/20 07:26:27;;;;;;;10.00;1.80;;;20.90;73.00;;;;;;5032047;28;20547;-86
2022/09/20 07:28:55;;;;;;;6.35;1.70;;;20.80;73.90;;;;;;5029948;28;20396;-84
2022/09/20 07:31:25;;;;;;;10.68;1.70;;;20.50;75.30;;;;;;5030985;28;20424;-83
2022/09/20 07:33:52;;;;;;;7.82;1.80;;;20.30;76.80;;;;;;5026310;28;20472;-85
2022/09/20 07:36:19;;;;;;;6.80;1.83;;;20.10;78.40;;;;;;5031829;28;20374;-86
2022/09/20 07:38:51;;;;;;;7.25;1.70;;;19.80;80.80;;;;;;5025573;28;20393;-86
2022/09/20 07:41:21;;;;;;;8.85;1.58;;;19.40;84.00;;;;;;5016247;28;20385;-86
2022/09/20 07:43:49;;;;;;;6.80;1.60;;;19.00;87.90;;;;;;5012704;28;20413;-89
2022/09/20 07:46:17;;;;;;;5.45;1.58;;;18.80;91.30;;;;;;5015253;28;20382;-87
2022/09/20 07:48:43;;;;;;;6.63;1.80;;;18.50;93.00;;;;;;5015905;28;20825;-84
2022/09/20 07:51:12;;;;;;;5.28;1.67;;;18.30;95.20;;;;;;5026971;28;20402;-87
2022/09/20 07:53:39;;;;;;;7.00;1.80;;;18.20;96.60;;;;;;5030627;28;20385;-80
2022/09/20 07:56:17;;;;;;;5.75;1.77;;;18.10;97.80;;;;;;5023005;28;20476;-86
2022/09/20 07:58:44;;;;;;;7.85;1.95;;;18.00;98.90;;;;;;5033114;28;20405;-79
2022/09/20 08:01:13;;;;;;;8.50;1.70;;;17.90;99.80;;;;;;5035760;28;20776;-85
2022/09/20 08:03:41;;;;;;;8.70;1.90;;;17.80;99.90;;;;;;5034841;28;20727;-83
2022/09/20 08:06:13;;;;;;;6.90;1.70;;;17.70;99.90;;;;;;5037060;28;20558;-87
2022/09/20 08:08:41;;;;;;;7.63;1.85;;;17.50;99.90;;;;;;5038014;28;20433;-85
2022/09/20 08:11:17;;;;;;;7.07;1.70;;;17.40;99.90;;;;;;5032880;28;20398;-82
2022/09/20 08:13:50;;;;;;;5.75;1.85;;;17.40;99.90;;;;;;5035052;28;20380;-84
2022/09/20 08:16:18;;;;;;;9.05;2.15;;;17.30;99.90;;;;;;5017983;28;20493;-82
2022/09/20 08:18:56;;;;;;;7.13;1.80;;;17.20;99.90;;;;;;5037497;28;20365;-86
2022/09/20 08:21:30;;;;;;;7.30;1.90;;;17.20;99.90;;;;;;5022472;28;20394;-82
2022/09/20 08:23:58;;;;;;;5.32;1.70;;;17.10;99.90;;;;;;5034085;28;20929;-80
2022/09/20 08:26:27;;;;;;;7.35;2.00;;;17.00;99.90;;;;;;5033558;28;20373;-82
2022/09/20 08:28:56;;;;;;;8.23;2.13;;;17.00;99.90;;;;;;5024521;28;20377;-82
2022/09/20 08:31:25;;;;;;;5.72;1.80;;;17.00;99.90;;;;;;5017229;28;20393;-86
2022/09/20 08:33:53;;;;;;;6.57;1.70;;;17.00;99.90;;;;;;5033984;28;20494;-86
2022/09/20 08:36:23;;;;;;;6.60;1.83;;;16.90;99.90;;;;;;5050514;28;20467;-79
2022/09/20 08:38:56;;;;;;;8.50;1.80;;;16.80;99.90;;;;;;5045143;28;20404;-82
2022/09/20 08:41:55;;;;;;;7.77;1.83;;;16.70;99.90;;;;;;5033312;28;20428;-83
2022/09/20 08:44:25;;;;;;;7.40;1.95;;;16.60;99.90;;;;;;5031745;28;20413;-81
2022/09/20 08:47:08;;;;;;;8.32;1.70;;;16.60;99.90;;;;;;5030031;28;20897;-78
2022/09/20 08:49:36;;;;;;;6.30;1.70;;;16.50;99.90;;;;;;5027865;28;20453;-85
2022/09/20 08:52:05;;;;;;;8.03;1.90;;;16.40;99.90;;;;;;5029697;28;20393;-87
2022/09/20 08:54:35;;;;;;;9.10;2.17;;;16.40;99.90;;;;;;5033692;28;20864;-87
2022/09/20 08:57:09;;;;;;;8.48;1.90;;;16.40;99.90;;;;;;5029646;28;20810;-80
2022/09/20 08:59:37;;;;;;;8.77;2.20;;;16.30;99.90;;;;;;5028896;28;20460;-83
2022/09/20 09:02:18;;;;;;;9.68;2.20;;;16.30;99.90;;;;;;5035031;28;20397;-80
2022/09/20 09:04:47;;;;;;;13.18;2.53;;;16.20;99.90;;;;;;5029333;28;20903;-83
2022/09/20 09:07:22;;;;;;;11.35;2.28;;;16.20;99.90;;;;;;5034931;28;20385;-84
2022/09/20 09:09:53;;;;;;;8.67;2.10;;;16.10;99.90;;;;;;5021147;28;20394;-80
2022/09/20 09:12:30;;;;;;;7.88;1.90;;;16.10;99.90;;;;;;5005509;28;20430;-78
2022/09/20 09:15:09;;;;;;;8.07;1.90;;;16.10;99.90;;;;;;5030363;28;20386;-84
2022/09/20 09:17:36;;;;;;;8.18;1.90;;;16.00;99.90;;;;;;5031940;28;20393;-83
2022/09/20 09:20:22;;;;;;;6.47;1.90;;;16.00;99.90;;;;;;5036518;28;20404;-84
2022/09/20 09:23:04;;;;;;;7.90;1.97;;;15.90;99.90;;;;;;5016822;28;20393;-84
2022/09/20 09:25:39;;;;;;;7.53;1.90;;;15.90;99.90;;;;;;5038918;28;20381;-84
2022/09/20 09:28:08;;;;;;;8.73;1.90;;;15.80;99.90;;;;;;4978559;28;20396;-85
2022/09/20 09:30:43;;;;;;;7.43;1.83;;;15.80;99.90;;;;;;4992586;28;20395;-86
2022/09/20 09:33:29;;;;;;;8.40;1.93;;;15.80;99.90;;;;;;4986451;28;20381;-82
2022/09/20 09:36:08;;;;;;;10.32;3.78;;;15.80;99.90;;;;;;4981108;28;20408;-82
2022/09/20 09:38:43;;;;;;;9.93;3.13;;;15.80;99.90;;;;;;4975666;28;20409;-85
2022/09/20 09:41:32;;;;;;;7.85;2.00;;;15.80;99.90;;;;;;4972600;28;20395;-83
2022/09/20 09:44:03;;;;;;;5.82;2.03;;;15.70;99.90;;;;;;4986499;28;20420;-84
2022/09/20 09:46:33;;;;;;;9.33;2.17;;;15.70;99.90;;;;;;4988741;28;20423;-84
2022/09/20 09:49:14;;;;;;;9.00;2.10;;;15.70;99.90;;;;;;4996169;28;20373;-83
2022/09/20 09:52:02;;;;;;;10.67;2.00;;;15.60;99.90;;;;;;4991459;28;20446;-84
2022/09/20 09:54:38;;;;;;;10.02;2.20;;;15.60;99.90;;;;;;5009130;28;20463;-81
2022/09/20 09:57:19;;;;;;;9.13;2.08;;;15.50;99.90;;;;;;4996440;28;20423;-85
2022/09/20 09:59:46;;;;;;;8.33;2.07;;;15.50;99.90;;;;;;4995378;28;21330;-84
2022/09/20 10:02:19;;;;;;;7.25;1.90;;;15.50;99.90;;;;;;4995347;28;20411;-84
2022/09/20 10:05:06;;;;;;;7.07;1.85;;;15.50;99.90;;;;;;4994661;28;20419;-85
2022/09/20 10:08:03;;;;;;;8.10;1.88;;;15.50;99.90;;;;;;4975377;28;20901;-84
2022/09/20 10:10:49;;;;;;;7.78;1.70;;;15.40;99.90;;;;;;4975075;28;20398;-84
2022/09/20 10:13:45;;;;;;;7.20;1.95;;;15.40;99.90;;;;;;4968896;28;20470;-85
2022/09/20 10:16:36;;;;;;;6.55;1.75;;;15.40;99.90;;;;;;4975064;28;20470;-84
2022/09/20 10:19:35;;;;;;;7.87;1.97;;;15.30;99.90;;;;;;4968465;28;20404;-84
2022/09/20 10:22:37;;;;;;;6.75;1.92;;;15.20;99.90;;;;;;4971976;28;20511;-84
2022/09/20 10:25:22;;;;;;;8.40;1.88;;;15.20;99.90;;;;;;4968377;28;20980;-84
2022/09/20 10:27:58;;;;;;;8.50;2.00;;;15.10;99.90;;;;;;4970691;28;20385;-84
2022/09/20 10:30:57;;;;;;;9.73;2.33;;;15.10;99.90;;;;;;4970387;28;20890;-83
2022/09/20 10:33:45;;;;;;;8.52;2.17;;;15.00;99.90;;;;;;4971599;28;20383;-85
2022/09/20 10:36:20;;;;;;;8.38;2.38;;;15.00;99.90;;;;;;4966798;28;20386;-83
2022/09/20 10:38:50;;;;;;;10.68;1.98;;;15.00;99.90;;;;;;4975677;28;20390;-82
2022/09/20 10:44:38;;;;;;;8.90;2.40;;;14.90;99.90;;;;;;4978915;28;20501;-80
2022/09/20 10:47:14;;;;;;;8.25;2.17;;;14.70;99.90;;;;;;5032601;28;20372;-83
2022/09/20 10:49:41;;;;;;;10.88;2.20;;;14.70;99.90;;;;;;5038622;28;20405;-83
2022/09/20 10:53:00;;;;;;;7.20;1.92;;;14.70;99.90;;;;;;5027725;28;20442;-83
2022/09/20 10:55:29;;;;;;;9.30;1.92;;;14.60;99.90;;;;;;4950940;28;20431;-83
2022/09/20 10:58:25;;;;;;;9.43;2.40;;;14.50;99.90;;;;;;4949950;28;20400;-79
2022/09/20 11:01:00;;;;;;;8.68;2.47;;;14.50;99.90;;;;;;4950694;28;20400;-82
2022/09/20 11:03:38;;;;;;;7.85;2.10;;;14.30;99.90;;;;;;4950574;28;20503;-79
2022/09/20 11:06:39;;;;;;;8.02;2.08;;;14.20;99.90;;;;;;4949557;28;20414;-79
2022/09/20 11:09:11;;;;;;;8.75;2.40;;;14.30;99.90;;;;;;4950855;28;20388;-83
2022/09/20 11:11:48;;;;;;;8.38;2.60;;;14.20;99.90;;;;;;4950106;28;20470;-78
2022/09/20 11:14:31;;;;;;;8.30;2.27;;;14.10;99.90;;;;;;4950028;28;20881;-83
2022/09/20 11:17:12;;;;;;;9.30;2.17;;;14.10;99.90;;;;;;4950786;28;20879;-83
2022/09/20 11:19:47;;;;;;;6.85;2.30;;;14.00;99.90;;;;;;4950144;28;20423;-80
2022/09/20 11:22:40;;;;;;;7.72;2.33;;;14.00;99.90;;;;;;4951059;28;21003;-81
2022/09/20 11:25:18;;;;;;;9.82;2.40;;;13.90;99.90;;;;;;4950120;28;20412;-81
2022/09/20 11:27:53;;;;;;;9.07;2.40;;;13.80;99.90;;;;;;4949982;28;20805;-80
2022/09/20 11:30:23;;;;;;;9.18;2.70;;;13.70;99.90;;;;;;4950366;28;20384;-80
2022/09/20 11:33:23;;;;;;;7.63;2.47;;;13.70;99.90;;;;;;5019336;28;20431;-83
2022/09/20 11:36:01;;;;;;;7.88;2.42;;;13.70;99.90;;;;;;4958967;28;20388;-79
2022/09/20 11:38:43;;;;;;;8.25;2.60;;;13.60;99.90;;;;;;4953039;28;20476;-82
2022/09/20 11:41:22;;;;;;;8.75;2.40;;;13.60;99.90;;;;;;4947072;28;20407;-83
2022/09/20 11:43:50;;;;;;;9.27;2.55;;;13.70;99.90;;;;;;4964457;28;20548;-83
2022/09/20 11:46:32;;;;;;;7.75;2.60;;;13.60;99.90;;;;;;4965614;28;20407;-79
2022/09/20 11:49:23;;;;;;;8.45;2.50;;;13.50;99.90;;;;;;4969008;28;20395;-80
2022/09/20 11:52:05;;;;;;;9.93;2.60;;;13.50;99.90;;;;;;4969565;28;20390;-84
2022/09/20 11:54:47;;;;;;;10.48;2.60;;;13.40;99.90;;;;;;4964717;28;20831;-79
2022/09/20 11:57:15;;;;;;;10.48;2.80;;;13.40;99.90;;;;;;4957798;28;20451;-80
2022/09/20 11:59:49;;;;;;;9.85;2.53;;;13.30;99.90;;;;;;4968638;28;20402;-80
2022/09/20 12:02:42;;;;;;;8.75;2.47;;;13.30;99.90;;;;;;4969216;28;20386;-84
2022/09/20 12:05:32;;;;;;;7.63;2.40;;;13.20;99.90;;;;;;4967515;28;20422;-83
2022/09/20 12:08:07;;;;;;;10.65;2.67;;;13.20;99.90;;;;;;4968799;28;20371;-81
2022/09/20 12:10:39;;;;;;;10.23;2.50;;;13.10;99.90;;;;;;4969257;28;20518;-83
2022/09/20 12:13:20;;;;;;;6.80;2.25;;;13.10;99.90;;;;;;5014569;28;20392;-85
2022/09/20 12:15:59;;;;;;;13.15;2.75;;;13.10;99.90;;;;;;5039283;28;20870;-85
2022/09/20 12:18:38;;;;;;;6.40;2.20;;;13.00;99.90;;;;;;5033577;28;20377;-77
2022/09/20 12:21:13;;;;;;;6.97;2.40;;;13.00;99.90;;;;;;5036206;28;20449;-77
2022/09/20 12:23:43;;;;;;;8.68;2.72;;;13.00;99.90;;;;;;5017577;28;20395;-83
2022/09/20 12:26:23;;;;;;;7.07;2.40;;;12.90;99.90;;;;;;5013866;28;20405;-83
2022/09/20 12:29:00;;;;;;;11.05;2.75;;;12.90;99.90;;;;;;5023332;28;20393;-83
2022/09/20 12:31:31;;;;;;;8.02;2.50;;;12.90;99.90;;;;;;5027594;28;20974;-86
2022/09/20 12:34:12;;;;;;;8.73;2.67;;;12.80;99.90;;;;;;5023389;28;20714;-82
2022/09/20 12:36:43;;;;;;;8.68;2.80;;;12.80;99.90;;;;;;5023667;28;20440;-83
2022/09/20 12:39:10;;;;;;;10.02;2.90;;;12.80;99.90;;;;;;5027241;28;20389;-83
2022/09/20 12:41:50;;;;;;;9.37;3.10;;;12.80;99.90;;;;;;5021792;28;20454;-78
2022/09/20 12:44:36;;;;;;;10.65;3.40;;;12.80;99.90;;;;;;5031033;28;20440;-81
2022/09/20 12:47:12;;;;;;;12.90;3.28;;;12.70;99.90;;;;;;5031481;28;20385;-81
2022/09/20 12:52:50;;;;;;;10.32;3.05;;;12.70;99.90;;;;;;5016021;28;20418;-84
2022/09/20 12:55:44;;;;;;;8.65;2.88;;;12.70;99.90;;;;;;5017521;28;20796;-80
2022/09/20 12:58:14;;;;;;;11.15;3.25;;;12.60;99.90;;;;;;5030601;28;20403;-81
2022/09/20 13:01:01;;;;;;;10.45;2.90;;;12.60;99.90;;;;;;5030121;28;20389;-80
2022/09/20 13:03:35;;;;;;;9.07;2.90;;;12.60;99.90;;;;;;5019746;28;20404;-81
2022/09/20 13:06:19;;;;;;;9.32;2.72;;;12.60;99.90;;;;;;5028718;28;20404;-77
2022/09/20 13:08:55;;;;;;;10.82;2.90;;;12.60;99.90;;;;;;5031451;28;20370;-81
2022/09/20 13:11:38;;;;;;;9.68;2.80;;;12.60;99.90;;;;;;5031245;28;20476;-84
2022/09/20 13:14:23;;;;;;;10.20;2.60;;;12.60;99.90;;;;;;5024223;28;20417;-76
2022/09/20 13:17:13;;;;;;;12.93;2.90;;;12.60;99.90;;;;;;5017797;28;21046;-81
2022/09/20 13:19:46;;;;;;;8.35;2.75;;;12.60;99.90;;;;;;5032769;28;20378;-83
2022/09/20 13:22:33;;;;;;;9.07;2.60;;;12.50;99.90;;;;;;5029374;28;20416;-79
2022/09/20 13:25:06;;;;;;;7.80;2.70;;;12.50;99.90;;;;;;5022658;28;20661;-82
2022/09/20 13:27:49;;;;;;;8.05;2.70;;;12.50;99.90;;;;;;5012556;28;20418;-81
2022/09/20 13:30:19;;;;;;;8.70;2.70;;;12.50;99.90;;;;;;5021334;28;20460;-79
2022/09/20 13:32:47;;;;;;;8.05;2.60;;;12.50;99.90;;;;;;5021300;28;20394;-81
2022/09/20 13:35:23;;;;;;;11.32;2.90;;;12.50;99.90;;;;;;5019541;28;20397;-79
2022/09/20 13:38:05;;;;;;;13.50;3.03;;;12.50;99.90;;;;;;5033862;28;20427;-82
2022/09/20 13:40:42;;;;;;;15.88;3.28;;;12.50;99.90;;;;;;5030522;28;20427;-78
2022/09/20 13:43:29;;;;;;;23.27;3.75;;;12.50;99.90;;;;;;5030467;28;20392;-81
2022/09/20 13:46:06;;;;;;;15.45;3.28;;;12.60;99.90;;;;;;5034004;28;20412;-77
2022/09/20 13:48:34;;;;;;;21.63;3.63;;;12.50;99.90;;;;;;5027084;28;20389;-83
2022/09/20 13:51:01;;;;;;;17.00;3.13;;;12.60;99.90;;;;;;5025838;28;20410;-83
2022/09/20 13:53:34;;;;;;;28.00;3.95;;;12.50;99.90;;;;;;5030863;28;20471;-83
2022/09/20 13:56:08;;;;;;;25.75;3.70;;;12.50;99.90;;;;;;5009842;28;20750;-83
2022/09/20 13:58:38;;;;;;;27.67;3.80;;;12.40;99.90;;;;;;5028514;28;20388;-84
2022/09/20 14:01:19;;;;;;;21.58;3.65;;;12.40;99.90;;;;;;5031050;28;20382;-81
2022/09/20 14:03:47;;;;;;;20.60;3.50;;;12.40;99.90;;;;;;5037668;28;20464;-77
2022/09/20 14:06:17;;;;;;;19.65;3.33;;;12.30;99.90;;;;;;5040857;28;20395;-77